sensor_id;sensor_type;location;lat;lon;timestamp;P1;durP1;ratioP1;P2;durP2;ratioP2
4583;SDS011;2304;47.606;12.186;2023-11-21T00:02:31;16.20;;;10.10;;
4583;SDS011;2304;47.606;12.186;2023-11-21T00:07:33;15.77;;;11.37;;
4583;SDS011;2304;47.606;12.186;2023-11-21T00:12:35;19.10;;;11.80;;
4583;SDS011;2304;47.606;12.186;2023-11-21T00:17:38;16.43;;;10.60;;
4583;SDS011;2304;47.606;12.186;2023-11-21T00:22:40;14.20;;;10.10;;
4583;SDS011;2304;47.606;12.186;2023-11-21T00:27:42;16.93;;;11.40;;
4583;SDS011;2304;47.606;12.186;2023-11-21T00:32:46;17.40;;;11.53;;
4583;SDS011;2304;47.606;12.186;2023-11-21T00:37:47;22.40;;;12.47;;
4583;SDS011;2304;47.606;12.186;2023-11-21T00:42:49;16.73;;;10.50;;
4583;SDS011;2304;47.606;12.186;2023-11-21T00:47:52;17.87;;;10.87;;
4583;SDS011;2304;47.606;12.186;2023-11-21T00:52:54;16.60;;;11.57;;
4583;SDS011;2304;47.606;12.186;2023-11-21T00:57:56;16.97;;;11.03;;
4583;SDS011;2304;47.606;12.186;2023-11-21T01:02:59;14.20;;;10.63;;
4583;SDS011;2304;47.606;12.186;2023-11-21T01:08:02;18.80;;;11.57;;
4583;SDS011;2304;47.606;12.186;2023-11-21T01:13:04;16.40;;;11.17;;
4583;SDS011;2304;47.606;12.186;2023-11-21T01:18:08;14.50;;;11.27;;
4583;SDS011;2304;47.606;12.186;2023-11-21T01:23:10;18.37;;;11.00;;
4583;SDS011;2304;47.606;12.186;2023-11-21T01:28:12;17.00;;;10.90;;
4583;SDS011;2304;47.606;12.186;2023-11-21T01:33:15;18.90;;;11.63;;
4583;SDS011;2304;47.606;12.186;2023-11-21T01:38:17;19.10;;;13.57;;
4583;SDS011;2304;47.606;12.186;2023-11-21T01:43:19;19.13;;;13.30;;
4583;SDS011;2304;47.606;12.186;2023-11-21T01:48:23;16.63;;;11.93;;
4583;SDS011;2304;47.606;12.186;2023-11-21T01:53:25;20.30;;;12.97;;
4583;SDS011;2304;47.606;12.186;2023-11-21T01:58:28;19.77;;;12.90;;
4583;SDS011;2304;47.606;12.186;2023-11-21T02:03:33;18.30;;;13.03;;
4583;SDS011;2304;47.606;12.186;2023-11-21T02:08:35;19.37;;;12.77;;
4583;SDS011;2304;47.606;12.186;2023-11-21T02:13:38;23.33;;;14.77;;
4583;SDS011;2304;47.606;12.186;2023-11-21T02:18:44;20.40;;;14.00;;
4583;SDS011;2304;47.606;12.186;2023-11-21T02:23:48;18.27;;;12.70;;
4583;SDS011;2304;47.606;12.186;2023-11-21T02:28:51;19.07;;;12.50;;
4583;SDS011;2304;47.606;12.186;2023-11-21T02:33:54;18.10;;;11.27;;
4583;SDS011;2304;47.606;12.186;2023-11-21T02:38:57;13.10;;;9.80;;
4583;SDS011;2304;47.606;12.186;2023-11-21T02:43:59;15.70;;;10.03;;
4583;SDS011;2304;47.606;12.186;2023-11-21T02:49:01;16.30;;;11.63;;
4583;SDS011;2304;47.606;12.186;2023-11-21T02:54:04;20.50;;;10.43;;
4583;SDS011;2304;47.606;12.186;2023-11-21T02:59:08;18.10;;;12.10;;
4583;SDS011;2304;47.606;12.186;2023-11-21T03:04:10;15.00;;;11.10;;
4583;SDS011;2304;47.606;12.186;2023-11-21T03:09:20;16.40;;;10.50;;
4583;SDS011;2304;47.606;12.186;2023-11-21T03:14:22;16.33;;;10.00;;
4583;SDS011;2304;47.606;12.186;2023-11-21T03:19:24;19.10;;;10.10;;
4583;SDS011;2304;47.606;12.186;2023-11-21T03:24:27;15.10;;;10.77;;
4583;SDS011;2304;47.606;12.186;2023-11-21T03:29:29;17.20;;;11.60;;
4583;SDS011;2304;47.606;12.186;2023-11-21T03:34:31;14.43;;;10.40;;
4583;SDS011;2304;47.606;12.186;2023-11-21T03:39:34;17.57;;;10.77;;
4583;SDS011;2304;47.606;12.186;2023-11-21T03:44:36;15.93;;;10.33;;
4583;SDS011;2304;47.606;12.186;2023-11-21T03:49:37;17.73;;;10.10;;
4583;SDS011;2304;47.606;12.186;2023-11-21T03:54:41;16.30;;;10.60;;
4583;SDS011;2304;47.606;12.186;2023-11-21T03:59:43;13.10;;;8.07;;
4583;SDS011;2304;47.606;12.186;2023-11-21T04:04:45;13.03;;;8.77;;
4583;SDS011;2304;47.606;12.186;2023-11-21T04:09:48;15.20;;;9.63;;
4583;SDS011;2304;47.606;12.186;2023-11-21T04:14:50;16.80;;;10.40;;
4583;SDS011;2304;47.606;12.186;2023-11-21T04:19:52;16.33;;;10.40;;
4583;SDS011;2304;47.606;12.186;2023-11-21T04:24:55;13.50;;;9.93;;
4583;SDS011;2304;47.606;12.186;2023-11-21T04:29:57;17.40;;;9.90;;
4583;SDS011;2304;47.606;12.186;2023-11-21T04:34:59;15.00;;;10.13;;
4583;SDS011;2304;47.606;12.186;2023-11-21T04:40:02;15.97;;;9.83;;
4583;SDS011;2304;47.606;12.186;2023-11-21T04:45:07;14.63;;;9.83;;
4583;SDS011;2304;47.606;12.186;2023-11-21T04:50:11;16.20;;;9.83;;
4583;SDS011;2304;47.606;12.186;2023-11-21T04:55:14;15.97;;;10.07;;
4583;SDS011;2304;47.606;12.186;2023-11-21T05:00:16;19.33;;;11.43;;
4583;SDS011;2304;47.606;12.186;2023-11-21T05:05:18;16.30;;;10.13;;
4583;SDS011;2304;47.606;12.186;2023-11-21T05:10:22;14.10;;;9.43;;
4583;SDS011;2304;47.606;12.186;2023-11-21T05:15:24;12.93;;;9.17;;
4583;SDS011;2304;47.606;12.186;2023-11-21T05:20:27;11.60;;;9.47;;
4583;SDS011;2304;47.606;12.186;2023-11-21T05:25:30;14.77;;;9.07;;
4583;SDS011;2304;47.606;12.186;2023-11-21T05:30:32;13.03;;;10.30;;
4583;SDS011;2304;47.606;12.186;2023-11-21T05:35:34;12.90;;;9.80;;
4583;SDS011;2304;47.606;12.186;2023-11-21T05:40:38;13.57;;;8.10;;
4583;SDS011;2304;47.606;12.186;2023-11-21T05:45:39;11.60;;;8.87;;
4583;SDS011;2304;47.606;12.186;2023-11-21T05:50:41;11.70;;;8.33;;
4583;SDS011;2304;47.606;12.186;2023-11-21T05:55:44;18.03;;;10.20;;
4583;SDS011;2304;47.606;12.186;2023-11-21T06:00:46;14.60;;;10.33;;
4583;SDS011;2304;47.606;12.186;2023-11-21T06:05:48;15.37;;;9.73;;
4583;SDS011;2304;47.606;12.186;2023-11-21T06:10:51;14.60;;;9.90;;
4583;SDS011;2304;47.606;12.186;2023-11-21T06:15:53;19.57;;;11.00;;
4583;SDS011;2304;47.606;12.186;2023-11-21T06:20:56;10.73;;;8.10;;
4583;SDS011;2304;47.606;12.186;2023-11-21T06:26:00;14.80;;;8.93;;
4583;SDS011;2304;47.606;12.186;2023-11-21T06:31:02;15.50;;;9.50;;
4583;SDS011;2304;47.606;12.186;2023-11-21T06:36:05;12.30;;;9.07;;
4583;SDS011;2304;47.606;12.186;2023-11-21T06:41:09;15.80;;;9.50;;
4583;SDS011;2304;47.606;12.186;2023-11-21T06:46:11;16.73;;;10.00;;
4583;SDS011;2304;47.606;12.186;2023-11-21T06:51:14;13.57;;;9.27;;
4583;SDS011;2304;47.606;12.186;2023-11-21T06:56:18;14.07;;;9.40;;
4583;SDS011;2304;47.606;12.186;2023-11-21T07:01:19;17.50;;;11.80;;
4583;SDS011;2304;47.606;12.186;2023-11-21T07:06:21;16.30;;;11.00;;
4583;SDS011;2304;47.606;12.186;2023-11-21T07:11:24;19.33;;;11.90;;
4583;SDS011;2304;47.606;12.186;2023-11-21T07:16:26;15.40;;;11.00;;
4583;SDS011;2304;47.606;12.186;2023-11-21T07:21:30;20.17;;;10.87;;
4583;SDS011;2304;47.606;12.186;2023-11-21T07:26:33;13.43;;;8.70;;
4583;SDS011;2304;47.606;12.186;2023-11-21T07:31:36;13.03;;;8.40;;
4583;SDS011;2304;47.606;12.186;2023-11-21T07:36:38;15.40;;;8.40;;
4583;SDS011;2304;47.606;12.186;2023-11-21T07:41:41;14.87;;;9.00;;
4583;SDS011;2304;47.606;12.186;2023-11-21T07:46:48;16.17;;;7.50;;
4583;SDS011;2304;47.606;12.186;2023-11-21T07:51:50;15.80;;;9.07;;
4583;SDS011;2304;47.606;12.186;2023-11-21T07:56:54;14.90;;;7.73;;
4583;SDS011;2304;47.606;12.186;2023-11-21T08:01:55;11.83;;;8.33;;
4583;SDS011;2304;47.606;12.186;2023-11-21T08:06:57;14.13;;;9.47;;
4583;SDS011;2304;47.606;12.186;2023-11-21T08:12:00;11.73;;;7.73;;
4583;SDS011;2304;47.606;12.186;2023-11-21T08:17:03;13.60;;;8.83;;
4583;SDS011;2304;47.606;12.186;2023-11-21T08:22:04;13.37;;;7.93;;
4583;SDS011;2304;47.606;12.186;2023-11-21T08:27:09;17.07;;;9.10;;
4583;SDS011;2304;47.606;12.186;2023-11-21T08:32:11;12.30;;;7.87;;
4583;SDS011;2304;47.606;12.186;2023-11-21T08:37:14;13.17;;;8.80;;
4583;SDS011;2304;47.606;12.186;2023-11-21T08:42:17;14.20;;;9.00;;
4583;SDS011;2304;47.606;12.186;2023-11-21T08:47:19;13.97;;;8.20;;
4583;SDS011;2304;47.606;12.186;2023-11-21T08:52:21;25.63;;;13.10;;
4583;SDS011;2304;47.606;12.186;2023-11-21T08:57:25;71.37;;;26.57;;
4583;SDS011;2304;47.606;12.186;2023-11-21T09:02:27;138.97;;;50.50;;
4583;SDS011;2304;47.606;12.186;2023-11-21T09:07:28;22.20;;;12.10;;
4583;SDS011;2304;47.606;12.186;2023-11-21T09:12:32;59.63;;;22.70;;
4583;SDS011;2304;47.606;12.186;2023-11-21T09:17:35;105.60;;;33.30;;
4583;SDS011;2304;47.606;12.186;2023-11-21T09:22:36;38.03;;;15.47;;
4583;SDS011;2304;47.606;12.186;2023-11-21T09:27:40;23.70;;;13.23;;
4583;SDS011;2304;47.606;12.186;2023-11-21T09:32:42;11.53;;;7.60;;
4583;SDS011;2304;47.606;12.186;2023-11-21T09:37:45;11.57;;;8.40;;
4583;SDS011;2304;47.606;12.186;2023-11-21T09:42:49;14.67;;;8.87;;
4583;SDS011;2304;47.606;12.186;2023-11-21T09:47:55;96.37;;;31.50;;
4583;SDS011;2304;47.606;12.186;2023-11-21T09:52:58;16.10;;;10.00;;
4583;SDS011;2304;47.606;12.186;2023-11-21T09:58:08;13.07;;;9.57;;
4583;SDS011;2304;47.606;12.186;2023-11-21T10:03:12;22.67;;;12.13;;
4583;SDS011;2304;47.606;12.186;2023-11-21T10:08:14;15.73;;;9.97;;
4583;SDS011;2304;47.606;12.186;2023-11-21T10:13:18;40.73;;;17.20;;
4583;SDS011;2304;47.606;12.186;2023-11-21T10:18:20;28.60;;;15.03;;
4583;SDS011;2304;47.606;12.186;2023-11-21T10:23:25;18.03;;;9.83;;
4583;SDS011;2304;47.606;12.186;2023-11-21T10:28:29;20.90;;;10.70;;
4583;SDS011;2304;47.606;12.186;2023-11-21T10:33:31;13.87;;;8.63;;
4583;SDS011;2304;47.606;12.186;2023-11-21T10:38:33;12.27;;;9.00;;
4583;SDS011;2304;47.606;12.186;2023-11-21T10:43:45;12.20;;;8.57;;
4583;SDS011;2304;47.606;12.186;2023-11-21T10:48:50;32.10;;;14.93;;
4583;SDS011;2304;47.606;12.186;2023-11-21T10:53:54;14.93;;;8.70;;
4583;SDS011;2304;47.606;12.186;2023-11-21T10:58:58;26.33;;;12.33;;
4583;SDS011;2304;47.606;12.186;2023-11-21T11:03:59;20.20;;;9.70;;
4583;SDS011;2304;47.606;12.186;2023-11-21T11:09:02;21.50;;;9.87;;
4583;SDS011;2304;47.606;12.186;2023-11-21T11:14:06;11.00;;;7.13;;
4583;SDS011;2304;47.606;12.186;2023-11-21T11:19:10;8.77;;;4.83;;
4583;SDS011;2304;47.606;12.186;2023-11-21T11:30:03;6.03;;;2.67;;
4583;SDS011;2304;47.606;12.186;2023-11-21T11:35:19;4.43;;;2.37;;
4583;SDS011;2304;47.606;12.186;2023-11-21T11:40:38;5.33;;;3.23;;
4583;SDS011;2304;47.606;12.186;2023-11-21T11:45:42;6.80;;;3.30;;
4583;SDS011;2304;47.606;12.186;2023-11-21T11:51:00;32.43;;;18.30;;
4583;SDS011;2304;47.606;12.186;2023-11-21T12:01:27;5.83;;;2.50;;
4583;SDS011;2304;47.606;12.186;2023-11-21T12:06:32;3.10;;;1.80;;
4583;SDS011;2304;47.606;12.186;2023-11-21T12:11:36;3.00;;;1.60;;
4583;SDS011;2304;47.606;12.186;2023-11-21T12:16:39;3.80;;;1.83;;
4583;SDS011;2304;47.606;12.186;2023-11-21T12:21:43;4.13;;;3.07;;
4583;SDS011;2304;47.606;12.186;2023-11-21T12:26:45;4.00;;;2.63;;
4583;SDS011;2304;47.606;12.186;2023-11-21T12:31:49;3.30;;;1.30;;
4583;SDS011;2304;47.606;12.186;2023-11-21T12:36:51;2.37;;;1.80;;
4583;SDS011;2304;47.606;12.186;2023-11-21T12:41:54;2.80;;;2.03;;
4583;SDS011;2304;47.606;12.186;2023-11-21T12:46:58;2.77;;;1.47;;
4583;SDS011;2304;47.606;12.186;2023-11-21T12:52:01;2.43;;;1.20;;
4583;SDS011;2304;47.606;12.186;2023-11-21T12:57:04;2.80;;;2.17;;
4583;SDS011;2304;47.606;12.186;2023-11-21T13:02:09;4.00;;;1.53;;
4583;SDS011;2304;47.606;12.186;2023-11-21T13:07:15;4.10;;;2.70;;
4583;SDS011;2304;47.606;12.186;2023-11-21T13:12:17;5.73;;;3.13;;
4583;SDS011;2304;47.606;12.186;2023-11-21T13:17:26;3.10;;;1.93;;
4583;SDS011;2304;47.606;12.186;2023-11-21T13:22:28;3.57;;;1.93;;
4583;SDS011;2304;47.606;12.186;2023-11-21T13:27:31;4.50;;;2.30;;
4583;SDS011;2304;47.606;12.186;2023-11-21T13:32:35;3.83;;;1.70;;
4583;SDS011;2304;47.606;12.186;2023-11-21T13:37:37;8.97;;;3.93;;
4583;SDS011;2304;47.606;12.186;2023-11-21T13:42:39;6.87;;;5.60;;
4583;SDS011;2304;47.606;12.186;2023-11-21T13:47:43;4.40;;;2.23;;
4583;SDS011;2304;47.606;12.186;2023-11-21T13:52:45;3.87;;;2.13;;
4583;SDS011;2304;47.606;12.186;2023-11-21T13:57:47;9.37;;;4.10;;
4583;SDS011;2304;47.606;12.186;2023-11-21T14:02:53;5.70;;;3.50;;
4583;SDS011;2304;47.606;12.186;2023-11-21T14:07:58;7.70;;;3.67;;
4583;SDS011;2304;47.606;12.186;2023-11-21T14:13:04;6.27;;;3.53;;
4583;SDS011;2304;47.606;12.186;2023-11-21T14:18:07;5.50;;;2.90;;
4583;SDS011;2304;47.606;12.186;2023-11-21T14:23:11;5.03;;;3.60;;
4583;SDS011;2304;47.606;12.186;2023-11-21T14:28:13;8.73;;;4.43;;
4583;SDS011;2304;47.606;12.186;2023-11-21T14:33:16;6.37;;;3.77;;
4583;SDS011;2304;47.606;12.186;2023-11-21T14:38:18;7.63;;;4.20;;
4583;SDS011;2304;47.606;12.186;2023-11-21T14:43:19;5.93;;;3.47;;
4583;SDS011;2304;47.606;12.186;2023-11-21T14:48:23;10.93;;;5.07;;
4583;SDS011;2304;47.606;12.186;2023-11-21T14:53:41;12.50;;;6.90;;
4583;SDS011;2304;47.606;12.186;2023-11-21T14:58:54;9.33;;;4.47;;
4583;SDS011;2304;47.606;12.186;2023-11-21T15:03:58;5.47;;;3.43;;
4583;SDS011;2304;47.606;12.186;2023-11-21T15:09:00;4.70;;;2.80;;
4583;SDS011;2304;47.606;12.186;2023-11-21T15:14:19;10.10;;;4.00;;
4583;SDS011;2304;47.606;12.186;2023-11-21T15:19:26;4.60;;;2.77;;
4583;SDS011;2304;47.606;12.186;2023-11-21T15:24:28;4.67;;;2.30;;
4583;SDS011;2304;47.606;12.186;2023-11-21T15:29:30;6.40;;;2.80;;
4583;SDS011;2304;47.606;12.186;2023-11-21T15:34:33;4.90;;;2.80;;
4583;SDS011;2304;47.606;12.186;2023-11-21T15:39:36;8.20;;;5.20;;
4583;SDS011;2304;47.606;12.186;2023-11-21T15:44:38;8.50;;;5.23;;
4583;SDS011;2304;47.606;12.186;2023-11-21T15:49:41;11.13;;;6.70;;
4583;SDS011;2304;47.606;12.186;2023-11-21T15:54:43;6.17;;;5.10;;
4583;SDS011;2304;47.606;12.186;2023-11-21T15:59:46;5.27;;;3.40;;
4583;SDS011;2304;47.606;12.186;2023-11-21T16:04:49;4.70;;;2.40;;
4583;SDS011;2304;47.606;12.186;2023-11-21T16:09:51;7.20;;;5.80;;
4583;SDS011;2304;47.606;12.186;2023-11-21T16:14:52;5.40;;;3.43;;
4583;SDS011;2304;47.606;12.186;2023-11-21T16:19:56;4.00;;;2.50;;
4583;SDS011;2304;47.606;12.186;2023-11-21T16:24:57;8.07;;;4.27;;
4583;SDS011;2304;47.606;12.186;2023-11-21T16:30:00;8.67;;;5.20;;
4583;SDS011;2304;47.606;12.186;2023-11-21T16:35:05;10.77;;;7.40;;
4583;SDS011;2304;47.606;12.186;2023-11-21T16:40:10;6.13;;;3.33;;
4583;SDS011;2304;47.606;12.186;2023-11-21T16:45:12;8.53;;;5.70;;
4583;SDS011;2304;47.606;12.186;2023-11-21T16:50:15;5.67;;;4.90;;
4583;SDS011;2304;47.606;12.186;2023-11-21T16:55:17;6.47;;;5.13;;
4583;SDS011;2304;47.606;12.186;2023-11-21T17:00:20;10.77;;;5.77;;
4583;SDS011;2304;47.606;12.186;2023-11-21T17:05:24;7.90;;;4.90;;
4583;SDS011;2304;47.606;12.186;2023-11-21T17:10:25;17.20;;;10.80;;
4583;SDS011;2304;47.606;12.186;2023-11-21T17:15:27;9.27;;;6.60;;
4583;SDS011;2304;47.606;12.186;2023-11-21T17:20:30;8.10;;;5.87;;
4583;SDS011;2304;47.606;12.186;2023-11-21T17:25:32;9.53;;;6.53;;
4583;SDS011;2304;47.606;12.186;2023-11-21T17:30:34;4.20;;;3.03;;
4583;SDS011;2304;47.606;12.186;2023-11-21T17:35:40;6.40;;;4.37;;
4583;SDS011;2304;47.606;12.186;2023-11-21T17:40:42;12.40;;;6.57;;
4583;SDS011;2304;47.606;12.186;2023-11-21T17:45:45;9.13;;;6.50;;
4583;SDS011;2304;47.606;12.186;2023-11-21T17:50:48;13.20;;;9.07;;
4583;SDS011;2304;47.606;12.186;2023-11-21T17:55:50;14.90;;;8.80;;
4583;SDS011;2304;47.606;12.186;2023-11-21T18:00:52;17.30;;;13.93;;
4583;SDS011;2304;47.606;12.186;2023-11-21T18:05:55;15.53;;;10.10;;
4583;SDS011;2304;47.606;12.186;2023-11-21T18:10:57;27.37;;;24.57;;
4583;SDS011;2304;47.606;12.186;2023-11-21T18:15:59;14.10;;;12.70;;
4583;SDS011;2304;47.606;12.186;2023-11-21T18:21:02;8.80;;;5.60;;
4583;SDS011;2304;47.606;12.186;2023-11-21T18:26:04;45.53;;;25.00;;
4583;SDS011;2304;47.606;12.186;2023-11-21T18:31:06;73.90;;;41.60;;
4583;SDS011;2304;47.606;12.186;2023-11-21T18:36:09;22.80;;;14.57;;
4583;SDS011;2304;47.606;12.186;2023-11-21T18:41:11;7.40;;;5.47;;
4583;SDS011;2304;47.606;12.186;2023-11-21T18:46:20;14.53;;;6.23;;
4583;SDS011;2304;47.606;12.186;2023-11-21T18:51:23;6.40;;;4.63;;
4583;SDS011;2304;47.606;12.186;2023-11-21T18:56:25;8.17;;;5.30;;
4583;SDS011;2304;47.606;12.186;2023-11-21T19:01:29;10.83;;;5.57;;
4583;SDS011;2304;47.606;12.186;2023-11-21T19:06:32;3.83;;;2.77;;
4583;SDS011;2304;47.606;12.186;2023-11-21T19:11:34;2.70;;;1.90;;
4583;SDS011;2304;47.606;12.186;2023-11-21T19:16:36;14.93;;;5.27;;
4583;SDS011;2304;47.606;12.186;2023-11-21T19:21:39;9.90;;;5.53;;
4583;SDS011;2304;47.606;12.186;2023-11-21T19:26:41;20.10;;;11.77;;
4583;SDS011;2304;47.606;12.186;2023-11-21T19:31:44;6.70;;;4.37;;
4583;SDS011;2304;47.606;12.186;2023-11-21T19:36:47;34.73;;;17.47;;
4583;SDS011;2304;47.606;12.186;2023-11-21T19:41:49;29.40;;;12.00;;
4583;SDS011;2304;47.606;12.186;2023-11-21T19:46:52;15.47;;;9.87;;
4583;SDS011;2304;47.606;12.186;2023-11-21T19:51:55;18.53;;;12.20;;
4583;SDS011;2304;47.606;12.186;2023-11-21T19:56:56;17.33;;;10.37;;
4583;SDS011;2304;47.606;12.186;2023-11-21T20:02:04;8.30;;;6.10;;
4583;SDS011;2304;47.606;12.186;2023-11-21T20:07:07;7.50;;;5.60;;
4583;SDS011;2304;47.606;12.186;2023-11-21T20:12:09;8.67;;;5.70;;
4583;SDS011;2304;47.606;12.186;2023-11-21T20:17:12;10.13;;;7.20;;
4583;SDS011;2304;47.606;12.186;2023-11-21T20:22:16;25.80;;;14.43;;
4583;SDS011;2304;47.606;12.186;2023-11-21T20:27:17;11.10;;;7.37;;
4583;SDS011;2304;47.606;12.186;2023-11-21T20:32:19;12.17;;;7.60;;
4583;SDS011;2304;47.606;12.186;2023-11-21T20:37:25;9.80;;;7.07;;
4583;SDS011;2304;47.606;12.186;2023-11-21T20:42:27;7.57;;;5.60;;
4583;SDS011;2304;47.606;12.186;2023-11-21T20:47:29;7.87;;;4.97;;
4583;SDS011;2304;47.606;12.186;2023-11-21T20:52:34;10.30;;;8.27;;
4583;SDS011;2304;47.606;12.186;2023-11-21T20:57:35;15.23;;;6.20;;
4583;SDS011;2304;47.606;12.186;2023-11-21T21:02:37;10.33;;;6.03;;
4583;SDS011;2304;47.606;12.186;2023-11-21T21:07:40;6.67;;;5.23;;
4583;SDS011;2304;47.606;12.186;2023-11-21T21:12:43;6.17;;;5.27;;
4583;SDS011;2304;47.606;12.186;2023-11-21T21:17:44;6.73;;;5.20;;
4583;SDS011;2304;47.606;12.186;2023-11-21T21:22:48;7.33;;;5.30;;
4583;SDS011;2304;47.606;12.186;2023-11-21T21:27:51;11.87;;;6.17;;
4583;SDS011;2304;47.606;12.186;2023-11-21T21:32:53;9.40;;;4.77;;
4583;SDS011;2304;47.606;12.186;2023-11-21T21:37:58;7.10;;;4.33;;
4583;SDS011;2304;47.606;12.186;2023-11-21T21:43:00;5.10;;;3.73;;
4583;SDS011;2304;47.606;12.186;2023-11-21T21:48:02;10.77;;;5.60;;
4583;SDS011;2304;47.606;12.186;2023-11-21T21:53:05;12.17;;;6.13;;
4583;SDS011;2304;47.606;12.186;2023-11-21T21:58:12;10.47;;;5.33;;
4583;SDS011;2304;47.606;12.186;2023-11-21T22:03:14;8.50;;;4.20;;
4583;SDS011;2304;47.606;12.186;2023-11-21T22:08:17;5.23;;;4.20;;
4583;SDS011;2304;47.606;12.186;2023-11-21T22:13:18;5.03;;;4.10;;
4583;SDS011;2304;47.606;12.186;2023-11-21T22:18:21;8.60;;;3.87;;
4583;SDS011;2304;47.606;12.186;2023-11-21T22:23:24;3.60;;;3.03;;
4583;SDS011;2304;47.606;12.186;2023-11-21T22:28:26;4.97;;;3.70;;
4583;SDS011;2304;47.606;12.186;2023-11-21T22:33:27;7.00;;;3.60;;
4583;SDS011;2304;47.606;12.186;2023-11-21T22:38:30;7.77;;;4.10;;
4583;SDS011;2304;47.606;12.186;2023-11-21T22:43:32;5.30;;;3.93;;
4583;SDS011;2304;47.606;12.186;2023-11-21T22:48:34;5.90;;;4.53;;
4583;SDS011;2304;47.606;12.186;2023-11-21T22:53:38;8.93;;;5.37;;
4583;SDS011;2304;47.606;12.186;2023-11-21T22:58:39;9.43;;;5.37;;
4583;SDS011;2304;47.606;12.186;2023-11-21T23:03:41;6.97;;;3.87;;
4583;SDS011;2304;47.606;12.186;2023-11-21T23:08:45;6.10;;;3.00;;
4583;SDS011;2304;47.606;12.186;2023-11-21T23:13:47;3.00;;;2.30;;
4583;SDS011;2304;47.606;12.186;2023-11-21T23:18:50;3.70;;;2.40;;
4583;SDS011;2304;47.606;12.186;2023-11-21T23:23:54;3.80;;;2.43;;
4583;SDS011;2304;47.606;12.186;2023-11-21T23:28:56;17.00;;;4.70;;
4583;SDS011;2304;47.606;12.186;2023-11-21T23:33:58;2.90;;;1.47;;
4583;SDS011;2304;47.606;12.186;2023-11-21T23:39:01;2.33;;;1.20;;
4583;SDS011;2304;47.606;12.186;2023-11-21T23:44:05;2.10;;;1.10;;
4583;SDS011;2304;47.606;12.186;2023-11-21T23:49:06;2.30;;;1.10;;
4583;SDS011;2304;47.606;12.186;2023-11-21T23:54:10;1.67;;;0.90;;
4583;SDS011;2304;47.606;12.186;2023-11-21T23:59:12;1.80;;;1.00;;
